createdAt,value
2022-11-05T00:01:29.772Z,89.05
2022-11-05T00:05:08.491Z,88.29
2022-11-05T00:08:48.765Z,88.52
2022-11-05T00:12:30.816Z,88.92
2022-11-05T00:16:10.372Z,89.08
2022-11-05T00:19:31.801Z,88.73
2022-11-05T00:23:18.681Z,88.90
2022-11-05T00:26:41.507Z,89.05
2022-11-05T00:30:02.773Z,89.13
2022-11-05T00:33:24.521Z,89.57
2022-11-05T00:36:46.204Z,89.22
2022-11-05T00:40:08.791Z,89.61
2022-11-05T00:43:54.117Z,89.53
2022-11-05T00:47:33.161Z,88.93
2022-11-05T00:50:55.074Z,89.69
2022-11-05T00:54:16.660Z,89.52
2022-11-05T00:57:38.417Z,88.92
2022-11-05T01:01:02.154Z,89.29
2022-11-05T01:04:23.693Z,88.89
2022-11-05T01:07:44.955Z,89.24
2022-11-05T01:11:11.441Z,89.17
2022-11-05T01:14:32.906Z,89.42
2022-11-05T01:17:55.933Z,88.98
2022-11-05T01:21:17.684Z,89.04
2022-11-05T01:24:38.883Z,89.37
2022-11-05T01:28:00.313Z,88.83
2022-11-05T01:31:21.972Z,89.15
2022-11-05T01:34:45.189Z,88.93
2022-11-05T01:38:06.553Z,88.69
2022-11-05T01:41:27.910Z,88.94
2022-11-05T01:45:14.389Z,88.75
2022-11-05T01:48:37.573Z,88.42
2022-11-05T01:52:04.493Z,88.34
2022-11-05T01:55:30.026Z,88.61
2022-11-05T01:58:55.812Z,88.66
2022-11-05T02:02:19.231Z,88.34
2022-11-05T02:05:41.920Z,88.20
2022-11-05T02:09:09.465Z,88.26
2022-11-05T02:12:31.463Z,87.84
2022-11-05T02:16:00.314Z,88.04
2022-11-05T02:19:58.276Z,88.05
2022-11-05T02:23:54.675Z,87.69
2022-11-05T02:27:39.494Z,88.50
2022-11-05T02:31:05.222Z,88.31
2022-11-05T02:34:36.619Z,87.80
2022-11-05T02:38:05.838Z,88.31
2022-11-05T02:41:35.069Z,88.27
2022-11-05T02:45:06.969Z,88.30
2022-11-05T02:48:37.341Z,88.07
2022-11-05T02:51:59.860Z,87.80
2022-11-05T02:55:28.377Z,87.73
2022-11-05T02:58:49.951Z,87.78
2022-11-05T03:02:12.010Z,87.72
2022-11-05T03:05:44.616Z,87.99
2022-11-05T03:09:42.993Z,87.95
2022-11-05T03:13:15.196Z,87.42
2022-11-05T03:16:41.394Z,87.23
2022-11-05T03:20:11.300Z,87.50
2022-11-05T03:23:42.992Z,87.86
2022-11-05T03:27:09.935Z,87.17
2022-11-05T03:30:33.810Z,87.63
2022-11-05T03:33:56.818Z,86.94
2022-11-05T03:37:21.195Z,86.78
2022-11-05T03:40:48.582Z,87.36
2022-11-05T03:44:13.839Z,87.06
2022-11-05T03:47:40.571Z,87.30
2022-11-05T03:51:07.671Z,86.66
2022-11-05T03:54:29.529Z,86.54
2022-11-05T03:57:56.749Z,86.66
2022-11-05T04:01:18.163Z,86.56
2022-11-05T04:04:40.276Z,86.16
2022-11-05T04:08:18.980Z,86.03
2022-11-05T04:11:57.869Z,85.95
2022-11-05T04:15:20.806Z,85.56
2022-11-05T04:18:41.477Z,86.07
2022-11-05T04:22:20.313Z,85.80
2022-11-05T04:25:41.629Z,85.78
2022-11-05T04:29:20.607Z,85.62
2022-11-05T04:32:43.480Z,85.70
2022-11-05T04:36:04.945Z,85.80
2022-11-05T04:39:26.317Z,85.67
2022-11-05T04:42:47.906Z,85.91
2022-11-05T04:46:09.239Z,85.68
2022-11-05T04:49:31.959Z,85.49
2022-11-05T04:52:53.605Z,85.95
2022-11-05T04:56:19.813Z,85.47
2022-11-05T04:59:41.788Z,85.70
2022-11-05T05:03:03.272Z,85.67
2022-11-05T05:06:25.936Z,85.51
2022-11-05T05:09:47.333Z,85.69
2022-11-05T05:13:10.839Z,85.67
2022-11-05T05:16:32.402Z,85.49
2022-11-05T05:20:11.532Z,85.52
2022-11-05T05:23:34.500Z,85.44
2022-11-05T05:26:56.541Z,85.31
2022-11-05T05:30:18.081Z,85.44
2022-11-05T05:33:39.468Z,85.49
2022-11-05T05:37:03.128Z,85.40
2022-11-05T05:40:26.242Z,85.54
2022-11-05T05:43:47.779Z,85.54
2022-11-05T05:47:09.175Z,85.54
2022-11-05T05:50:30.422Z,85.42
2022-11-05T05:54:01.658Z,85.45
2022-11-05T05:57:24.874Z,85.41
2022-11-05T06:00:46.503Z,85.39
2022-11-05T06:04:08.123Z,85.42
2022-11-05T06:07:33.113Z,85.01
2022-11-05T06:10:59.520Z,85.20
2022-11-05T06:14:22.684Z,85.21
2022-11-05T06:17:44.576Z,85.53
2022-11-05T06:21:07.765Z,85.74
2022-11-05T06:24:32.053Z,85.52
2022-11-05T06:27:56.287Z,85.55
2022-11-05T06:31:27.015Z,86.00
2022-11-05T06:34:58.494Z,85.74
2022-11-05T06:38:20.667Z,85.62
2022-11-05T06:42:22.596Z,85.69
2022-11-05T06:46:04.014Z,85.72
2022-11-05T06:49:49.431Z,85.83
2022-11-05T06:53:23.426Z,85.77
2022-11-05T06:57:11.439Z,86.14
2022-11-05T07:00:34.829Z,85.84
2022-11-05T07:04:00.404Z,85.69
2022-11-05T07:07:23.581Z,85.75
2022-11-05T07:10:52.122Z,85.90
2022-11-05T07:14:20.306Z,85.59
2022-11-05T07:28:43.052Z,86.27
2022-11-05T07:36:21.245Z,85.90
2022-11-05T07:39:47.123Z,86.10
2022-11-05T07:43:20.943Z,85.85
2022-11-05T07:46:42.902Z,86.03
2022-11-05T08:01:10.200Z,85.27
2022-11-05T08:05:30.866Z,85.61
2022-11-05T08:09:48.957Z,85.60
2022-11-05T08:13:39.298Z,85.76
2022-11-05T08:17:11.595Z,86.10
2022-11-05T08:20:42.620Z,86.15
2022-11-05T08:29:58.712Z,85.93
2022-11-05T08:33:28.492Z,86.00
2022-11-05T08:37:01.965Z,86.39
2022-11-05T08:40:38.121Z,86.59
2022-11-05T08:54:59.605Z,86.98
2022-11-05T09:23:59.739Z,86.31
2022-11-05T09:27:59.880Z,86.24
2022-11-05T09:48:22.648Z,87.42
2022-11-05T10:34:24.709Z,83.40
2022-11-05T10:44:14.751Z,82.86
2022-11-05T11:11:44.973Z,79.76
2022-11-05T11:15:58.087Z,78.53
2022-11-05T11:26:06.482Z,78.35
2022-11-05T11:36:07.782Z,76.91
2022-11-05T11:53:05.139Z,71.79
2022-11-05T12:03:01.823Z,71.51
2022-11-05T12:06:46.313Z,70.71
2022-11-05T12:16:00.031Z,70.83
2022-11-05T12:20:20.988Z,69.72
2022-11-05T12:29:43.870Z,67.65
2022-11-05T12:33:31.103Z,66.84
2022-11-05T12:47:03.887Z,66.10
2022-11-05T12:51:08.698Z,64.92
2022-11-05T12:55:52.697Z,66.06
2022-11-05T13:04:41.069Z,65.80
2022-11-05T13:08:07.443Z,65.84
2022-11-05T13:11:59.423Z,66.08
2022-11-05T13:15:28.505Z,66.61
2022-11-05T13:18:54.371Z,66.08
2022-11-05T13:22:51.211Z,66.41
2022-11-05T13:26:25.994Z,65.91
2022-11-05T13:29:51.102Z,66.33
2022-11-05T13:33:15.951Z,65.23
2022-11-05T13:37:05.472Z,66.00
2022-11-05T13:40:41.671Z,65.26
2022-11-05T13:44:25.986Z,64.81
2022-11-05T13:48:03.327Z,63.90
2022-11-05T13:52:07.540Z,64.99
2022-11-05T13:55:54.103Z,63.58
2022-11-05T13:59:46.490Z,64.16
2022-11-05T14:03:17.097Z,64.39
2022-11-05T14:06:38.758Z,63.27
2022-11-05T14:10:03.012Z,62.92
2022-11-05T14:13:32.250Z,63.40
2022-11-05T14:16:56.201Z,63.62
2022-11-05T14:20:43.303Z,64.20
2022-11-05T14:24:26.874Z,63.89
2022-11-05T14:27:54.430Z,64.38
2022-11-05T14:32:07.222Z,64.75
2022-11-05T14:35:38.063Z,64.76
2022-11-05T14:39:13.321Z,65.14
2022-11-05T14:43:25.975Z,65.55
2022-11-05T14:46:56.057Z,65.52
2022-11-05T14:50:25.865Z,64.50
2022-11-05T14:53:48.315Z,64.88
2022-11-05T14:57:14.200Z,65.01
2022-11-05T15:00:45.532Z,65.18
2022-11-05T15:04:19.588Z,65.42
2022-11-05T15:07:40.954Z,66.79
2022-11-05T15:11:13.654Z,67.47
2022-11-05T15:14:42.306Z,67.66
2022-11-05T15:18:11.575Z,68.32
2022-11-05T15:21:39.152Z,69.11
2022-11-05T15:26:01.222Z,69.32
2022-11-05T15:29:46.672Z,68.78
2022-11-05T15:33:20.283Z,69.26
2022-11-05T15:40:44.870Z,69.70
2022-11-05T15:44:24.189Z,70.48
2022-11-05T15:47:46.942Z,70.65
2022-11-05T15:51:08.370Z,71.24
2022-11-05T15:54:31.611Z,71.52
2022-11-05T15:58:02.704Z,72.06
2022-11-05T16:01:29.057Z,72.65
2022-11-05T16:04:56.323Z,73.06
2022-11-05T16:08:27.788Z,73.44
2022-11-05T16:12:13.618Z,73.70
2022-11-05T16:15:35.464Z,74.10
2022-11-05T16:19:42.135Z,74.80
2022-11-05T16:23:05.173Z,74.86
2022-11-05T16:27:00.444Z,75.14
2022-11-05T16:30:20.112Z,74.96
2022-11-05T16:33:54.310Z,75.12
2022-11-05T16:37:24.817Z,75.22
2022-11-05T16:40:47.680Z,75.11
2022-11-05T16:44:10.421Z,75.57
2022-11-05T16:47:33.760Z,75.63
2022-11-05T16:50:55.716Z,75.81
2022-11-05T16:54:17.226Z,76.34
2022-11-05T16:57:47.361Z,75.91
2022-11-05T17:01:20.933Z,76.70
2022-11-05T17:04:43.553Z,76.56
2022-11-05T17:08:05.286Z,76.93
2022-11-05T17:11:31.003Z,77.30
2022-11-05T17:14:52.197Z,77.21
2022-11-05T17:18:25.294Z,77.28
2022-11-05T17:21:50.033Z,77.41
2022-11-05T17:25:11.739Z,77.30
2022-11-05T17:28:35.858Z,77.17
2022-11-05T17:31:57.361Z,77.00
2022-11-05T17:35:18.915Z,77.04
2022-11-05T17:38:47.529Z,77.09
2022-11-05T17:42:11.162Z,77.18
2022-11-05T17:45:33.446Z,77.26
2022-11-05T17:49:03.634Z,77.63
2022-11-05T17:52:50.333Z,77.74
2022-11-05T17:56:59.218Z,77.33
2022-11-05T18:00:26.806Z,77.42
2022-11-05T18:03:48.646Z,78.28
2022-11-05T18:07:10.517Z,78.75
2022-11-05T18:10:32.381Z,78.30
2022-11-05T18:13:54.112Z,78.05
2022-11-05T18:17:17.336Z,77.53
2022-11-05T18:20:39.708Z,78.52
2022-11-05T18:24:06.656Z,78.05
2022-11-05T18:27:28.481Z,78.62
2022-11-05T18:30:50.183Z,78.77
2022-11-05T18:34:27.259Z,79.08
2022-11-05T18:37:48.718Z,79.48
2022-11-05T18:41:10.066Z,79.77
2022-11-05T18:44:36.259Z,79.84
2022-11-05T18:48:01.670Z,80.17
2022-11-05T18:51:24.673Z,80.01
2022-11-05T18:54:46.123Z,80.09
2022-11-05T18:58:32.467Z,80.34
2022-11-05T19:01:55.981Z,80.03
2022-11-05T19:05:33.192Z,80.21
2022-11-05T19:09:13.105Z,79.57
2022-11-05T19:12:36.302Z,79.79
2022-11-05T19:16:09.410Z,79.41
2022-11-05T19:19:30.701Z,79.66
2022-11-05T19:27:45.236Z,79.51
2022-11-05T19:31:18.672Z,79.19
2022-11-05T19:34:40.348Z,79.45
2022-11-05T19:38:02.229Z,79.55
2022-11-05T19:41:27.902Z,79.82
2022-11-05T19:44:50.743Z,79.63
2022-11-05T19:48:17.849Z,79.58
2022-11-05T19:52:10.299Z,79.78
2022-11-05T19:56:17.151Z,79.71
2022-11-05T19:59:50.488Z,80.31
2022-11-05T20:03:14.004Z,80.73
2022-11-05T20:06:38.867Z,80.67
2022-11-05T20:10:00.517Z,80.68
2022-11-05T20:13:22.347Z,80.50
2022-11-05T20:16:58.454Z,80.42
2022-11-05T20:20:24.223Z,80.54
2022-11-05T20:23:48.439Z,80.61
2022-11-05T20:27:11.380Z,80.62
2022-11-05T20:30:39.799Z,80.56
2022-11-05T20:34:01.705Z,80.51
2022-11-05T20:38:05.016Z,80.71
2022-11-05T20:41:27.604Z,80.58
2022-11-05T20:44:56.080Z,80.77
2022-11-05T20:48:19.543Z,80.52
2022-11-05T20:51:41.570Z,80.52
2022-11-05T20:55:09.099Z,80.84
2022-11-05T20:58:38.254Z,81.43
2022-11-05T21:02:03.705Z,81.23
2022-11-05T21:05:25.290Z,81.09
2022-11-05T21:08:52.985Z,81.45
2022-11-05T21:12:20.406Z,81.12
2022-11-05T21:15:51.073Z,81.37
2022-11-05T21:19:12.737Z,81.34
2022-11-05T21:22:35.692Z,81.39
2022-11-05T21:25:59.910Z,81.31
2022-11-05T21:29:23.206Z,81.01
2022-11-05T21:32:44.463Z,80.55
2022-11-05T21:36:10.738Z,80.45
2022-11-05T21:39:35.120Z,80.09
2022-11-05T21:44:08.905Z,80.36
2022-11-05T21:47:32.237Z,80.18
2022-11-05T21:51:17.894Z,80.67
2022-11-05T21:54:57.138Z,80.60
2022-11-05T21:58:42.387Z,80.00
2022-11-05T22:02:09.949Z,80.43
2022-11-05T22:05:42.086Z,80.32
2022-11-05T22:09:13.431Z,80.18
2022-11-05T22:12:35.288Z,80.58
2022-11-05T22:15:57.963Z,80.39
2022-11-05T22:19:20.312Z,80.27
2022-11-05T22:22:44.440Z,80.05
2022-11-05T22:26:05.985Z,80.15
2022-11-05T22:29:28.434Z,80.16
2022-11-05T22:32:50.099Z,80.31
2022-11-05T22:36:11.819Z,80.15
2022-11-05T22:39:37.135Z,80.58
2022-11-05T22:43:03.747Z,80.60
2022-11-05T22:46:29.635Z,81.05
2022-11-05T22:49:51.200Z,80.86
2022-11-05T22:53:12.777Z,80.33
2022-11-05T22:56:38.256Z,80.86
2022-11-05T22:59:59.984Z,80.38
2022-11-05T23:03:30.201Z,80.58
2022-11-05T23:07:14.542Z,80.79
2022-11-05T23:10:56.423Z,80.88
2022-11-05T23:14:21.910Z,80.38
2022-11-05T23:18:00.479Z,80.51
2022-11-05T23:21:39.496Z,80.85
2022-11-05T23:25:01.340Z,80.48
2022-11-05T23:28:26.117Z,81.04
2022-11-05T23:32:07.036Z,80.48
2022-11-05T23:35:54.949Z,80.50
2022-11-05T23:39:16.762Z,80.56
2022-11-05T23:42:56.868Z,80.38
2022-11-05T23:46:35.820Z,80.79
2022-11-05T23:49:58.571Z,80.41
2022-11-05T23:53:21.522Z,80.49
2022-11-05T23:56:42.940Z,80.09
